Dogtown, Illinois
Current Conditions -  °F | °C
As of 1:15 PM on Sunday 23 Nov 2014 (Local Time) from KCUL Reporting Station
Light Rain Light Rain  
Wind Chill: 54°   Ceiling: 1700
Heat Index: 54°   Visibility: 5mi
Dew Point: 53°   Wind: 8mph
Humidity: 96%   Direction: 130°SE
Pressure: 29.54"   Gusts: NA
Location:  38.0491°N, 88.1124°W
Report Text: KCUL 231915Z AUTO 13007KT 5SM -RA SCT010 OVC017 12/12 A2954 RMK AO2 P0001 T01210115
Loading
Personal Weather Stations






























Interactive Weather Map New forecast layout! Learn more

10-Day Weather Forecast

Advertisements
Track Severe Weather on mobile